sensor_id;sensor_type;location;lat;lon;timestamp;temperature;humidity
72277;SHT30;61204;49.980;8.358;2023-04-24T00:00:39;10.77;86.01
72277;SHT30;61204;49.980;8.358;2023-04-24T00:03:06;10.87;85.41
72277;SHT30;61204;49.980;8.358;2023-04-24T00:05:32;10.89;85.33
72277;SHT30;61204;49.980;8.358;2023-04-24T00:07:58;10.92;85.52
72277;SHT30;61204;49.980;8.358;2023-04-24T00:10:25;10.94;85.27
72277;SHT30;61204;49.980;8.358;2023-04-24T00:12:50;10.89;85.48
72277;SHT30;61204;49.980;8.358;2023-04-24T00:15:18;10.89;85.56
72277;SHT30;61204;49.980;8.358;2023-04-24T00:17:43;10.84;85.72
72277;SHT30;61204;49.980;8.358;2023-04-24T00:20:09;10.80;86.10
72277;SHT30;61204;49.980;8.358;2023-04-24T00:22:38;10.87;85.56
72277;SHT30;61204;49.980;8.358;2023-04-24T00:25:04;10.87;85.72
72277;SHT30;61204;49.980;8.358;2023-04-24T00:27:30;10.87;85.85
72277;SHT30;61204;49.980;8.358;2023-04-24T00:29:56;10.86;85.53
72277;SHT30;61204;49.980;8.358;2023-04-24T00:32:21;10.89;85.54
72277;SHT30;61204;49.980;8.358;2023-04-24T00:34:47;10.86;85.90
72277;SHT30;61204;49.980;8.358;2023-04-24T00:37:12;10.84;85.80
72277;SHT30;61204;49.980;8.358;2023-04-24T00:39:38;10.79;85.87
72277;SHT30;61204;49.980;8.358;2023-04-24T00:42:04;10.76;85.99
72277;SHT30;61204;49.980;8.358;2023-04-24T00:44:32;10.66;86.28
72277;SHT30;61204;49.980;8.358;2023-04-24T00:47:00;10.60;86.59
72277;SHT30;61204;49.980;8.358;2023-04-24T00:49:26;10.45;87.06
72277;SHT30;61204;49.980;8.358;2023-04-24T00:51:52;10.38;87.44
72277;SHT30;61204;49.980;8.358;2023-04-24T00:54:21;10.34;87.50
72277;SHT30;61204;49.980;8.358;2023-04-24T00:56:47;10.31;87.64
72277;SHT30;61204;49.980;8.358;2023-04-24T00:59:13;10.28;87.83
72277;SHT30;61204;49.980;8.358;2023-04-24T01:01:41;10.25;87.80
72277;SHT30;61204;49.980;8.358;2023-04-24T01:04:11;10.28;88.09
72277;SHT30;61204;49.980;8.358;2023-04-24T01:06:39;10.27;88.33
72277;SHT30;61204;49.980;8.358;2023-04-24T01:09:05;10.34;88.21
72277;SHT30;61204;49.980;8.358;2023-04-24T01:11:31;10.41;88.03
72277;SHT30;61204;49.980;8.358;2023-04-24T01:13:59;10.35;87.93
72277;SHT30;61204;49.980;8.358;2023-04-24T01:16:24;10.37;87.83
72277;SHT30;61204;49.980;8.358;2023-04-24T01:18:52;10.28;88.04
72277;SHT30;61204;49.980;8.358;2023-04-24T01:21:20;10.31;87.99
72277;SHT30;61204;49.980;8.358;2023-04-24T01:23:48;10.34;88.19
72277;SHT30;61204;49.980;8.358;2023-04-24T01:26:17;10.44;87.81
72277;SHT30;61204;49.980;8.358;2023-04-24T01:28:45;10.41;87.95
72277;SHT30;61204;49.980;8.358;2023-04-24T01:31:11;10.45;88.07
72277;SHT30;61204;49.980;8.358;2023-04-24T01:33:41;10.35;88.50
72277;SHT30;61204;49.980;8.358;2023-04-24T01:36:12;10.31;88.69
72277;SHT30;61204;49.980;8.358;2023-04-24T01:38:38;10.30;88.96
72277;SHT30;61204;49.980;8.358;2023-04-24T01:41:04;10.30;88.92
72277;SHT30;61204;49.980;8.358;2023-04-24T01:43:29;10.27;88.99
72277;SHT30;61204;49.980;8.358;2023-04-24T01:45:55;10.25;89.20
72277;SHT30;61204;49.980;8.358;2023-04-24T01:48:21;10.27;89.16
72277;SHT30;61204;49.980;8.358;2023-04-24T01:50:47;10.24;89.44
72277;SHT30;61204;49.980;8.358;2023-04-24T01:53:13;10.22;89.34
72277;SHT30;61204;49.980;8.358;2023-04-24T01:55:38;10.24;89.59
72277;SHT30;61204;49.980;8.358;2023-04-24T01:58:03;10.27;89.44
72277;SHT30;61204;49.980;8.358;2023-04-24T02:00:29;10.22;89.63
72277;SHT30;61204;49.980;8.358;2023-04-24T02:02:55;10.22;89.63
72277;SHT30;61204;49.980;8.358;2023-04-24T02:05:20;10.20;89.48
72277;SHT30;61204;49.980;8.358;2023-04-24T02:07:46;10.24;89.20
72277;SHT30;61204;49.980;8.358;2023-04-24T02:10:12;10.30;89.37
72277;SHT30;61204;49.980;8.358;2023-04-24T02:12:37;10.41;88.81
72277;SHT30;61204;49.980;8.358;2023-04-24T02:15:03;10.56;88.60
72277;SHT30;61204;49.980;8.358;2023-04-24T02:17:29;10.69;87.68
72277;SHT30;61204;49.980;8.358;2023-04-24T02:19:55;10.65;88.12
72277;SHT30;61204;49.980;8.358;2023-04-24T02:22:23;10.69;87.99
72277;SHT30;61204;49.980;8.358;2023-04-24T02:24:49;10.72;87.58
72277;SHT30;61204;49.980;8.358;2023-04-24T02:27:14;10.67;87.95
72277;SHT30;61204;49.980;8.358;2023-04-24T02:29:40;10.65;87.93
72277;SHT30;61204;49.980;8.358;2023-04-24T02:32:05;10.65;88.04
72277;SHT30;61204;49.980;8.358;2023-04-24T02:34:31;10.72;87.66
72277;SHT30;61204;49.980;8.358;2023-04-24T02:36:56;10.69;87.80
72277;SHT30;61204;49.980;8.358;2023-04-24T02:39:22;10.79;87.43
72277;SHT30;61204;49.980;8.358;2023-04-24T02:41:47;10.84;87.07
72277;SHT30;61204;49.980;8.358;2023-04-24T02:44:12;10.79;87.31
72277;SHT30;61204;49.980;8.358;2023-04-24T02:46:38;10.86;86.95
72277;SHT30;61204;49.980;8.358;2023-04-24T02:49:03;10.99;86.39
72277;SHT30;61204;49.980;8.358;2023-04-24T02:51:29;10.93;86.75
72277;SHT30;61204;49.980;8.358;2023-04-24T02:53:57;10.94;86.54
72277;SHT30;61204;49.980;8.358;2023-04-24T02:56:22;10.93;86.59
72277;SHT30;61204;49.980;8.358;2023-04-24T02:58:51;10.94;86.49
72277;SHT30;61204;49.980;8.358;2023-04-24T03:01:16;10.96;86.48
72277;SHT30;61204;49.980;8.358;2023-04-24T03:03:42;10.99;86.23
72277;SHT30;61204;49.980;8.358;2023-04-24T03:06:08;11.00;86.49
72277;SHT30;61204;49.980;8.358;2023-04-24T03:08:34;11.07;86.33
72277;SHT30;61204;49.980;8.358;2023-04-24T03:11:00;11.00;86.08
72277;SHT30;61204;49.980;8.358;2023-04-24T03:13:25;11.00;86.03
72277;SHT30;61204;49.980;8.358;2023-04-24T03:15:51;10.97;86.20
72277;SHT30;61204;49.980;8.358;2023-04-24T03:18:17;11.03;85.87
72277;SHT30;61204;49.980;8.358;2023-04-24T03:20:42;11.03;85.67
72277;SHT30;61204;49.980;8.358;2023-04-24T03:23:10;11.06;85.69
72277;SHT30;61204;49.980;8.358;2023-04-24T03:25:35;11.06;85.54
72277;SHT30;61204;49.980;8.358;2023-04-24T03:28:04;11.13;85.55
72277;SHT30;61204;49.980;8.358;2023-04-24T03:30:29;11.01;86.06
72277;SHT30;61204;49.980;8.358;2023-04-24T03:32:55;11.00;86.08
72277;SHT30;61204;49.980;8.358;2023-04-24T03:35:20;10.93;86.87
72277;SHT30;61204;49.980;8.358;2023-04-24T03:37:47;10.86;86.72
72277;SHT30;61204;49.980;8.358;2023-04-24T03:40:15;10.80;87.02
72277;SHT30;61204;49.980;8.358;2023-04-24T03:42:49;10.84;85.96
72277;SHT30;61204;49.980;8.358;2023-04-24T03:45:14;10.87;84.41
72277;SHT30;61204;49.980;8.358;2023-04-24T03:47:40;11.03;81.47
72277;SHT30;61204;49.980;8.358;2023-04-24T03:50:06;10.99;82.07
72277;SHT30;61204;49.980;8.358;2023-04-24T03:52:32;11.00;81.67
72277;SHT30;61204;49.980;8.358;2023-04-24T03:54:57;10.93;81.23
72277;SHT30;61204;49.980;8.358;2023-04-24T03:57:23;10.99;80.75
72277;SHT30;61204;49.980;8.358;2023-04-24T03:59:48;10.94;80.79
72277;SHT30;61204;49.980;8.358;2023-04-24T04:02:16;10.92;81.33
72277;SHT30;61204;49.980;8.358;2023-04-24T04:04:41;10.83;81.64
72277;SHT30;61204;49.980;8.358;2023-04-24T04:07:07;10.77;81.48
72277;SHT30;61204;49.980;8.358;2023-04-24T04:09:32;10.72;81.63
72277;SHT30;61204;49.980;8.358;2023-04-24T04:11:58;10.66;81.77
72277;SHT30;61204;49.980;8.358;2023-04-24T04:14:26;10.56;81.01
72277;SHT30;61204;49.980;8.358;2023-04-24T04:16:52;10.46;81.20
72277;SHT30;61204;49.980;8.358;2023-04-24T04:19:17;10.35;80.71
72277;SHT30;61204;49.980;8.358;2023-04-24T04:21:43;10.34;80.20
72277;SHT30;61204;49.980;8.358;2023-04-24T04:24:10;10.31;80.07
72277;SHT30;61204;49.980;8.358;2023-04-24T04:26:37;10.18;80.58
72277;SHT30;61204;49.980;8.358;2023-04-24T04:29:03;10.11;80.14
72277;SHT30;61204;49.980;8.358;2023-04-24T04:31:29;10.08;79.76
72277;SHT30;61204;49.980;8.358;2023-04-24T04:33:58;9.96;79.81
72277;SHT30;61204;49.980;8.358;2023-04-24T04:36:24;9.94;78.87
72277;SHT30;61204;49.980;8.358;2023-04-24T04:38:49;9.89;77.91
72277;SHT30;61204;49.980;8.358;2023-04-24T04:41:15;9.82;77.74
72277;SHT30;61204;49.980;8.358;2023-04-24T04:43:41;9.87;75.10
72277;SHT30;61204;49.980;8.358;2023-04-24T04:46:07;9.79;76.15
72277;SHT30;61204;49.980;8.358;2023-04-24T04:48:38;9.93;73.80
72277;SHT30;61204;49.980;8.358;2023-04-24T04:51:03;9.98;74.22
72277;SHT30;61204;49.980;8.358;2023-04-24T04:53:31;10.03;74.04
72277;SHT30;61204;49.980;8.358;2023-04-24T04:56:00;10.08;73.46
72277;SHT30;61204;49.980;8.358;2023-04-24T04:58:25;10.14;72.86
72277;SHT30;61204;49.980;8.358;2023-04-24T05:00:51;10.05;70.97
72277;SHT30;61204;49.980;8.358;2023-04-24T05:03:17;10.05;68.27
72277;SHT30;61204;49.980;8.358;2023-04-24T05:05:45;10.07;69.40
72277;SHT30;61204;49.980;8.358;2023-04-24T05:08:10;10.03;69.65
72277;SHT30;61204;49.980;8.358;2023-04-24T05:10:36;9.97;68.85
72277;SHT30;61204;49.980;8.358;2023-04-24T05:13:02;9.82;70.35
72277;SHT30;61204;49.980;8.358;2023-04-24T05:15:29;9.73;69.96
72277;SHT30;61204;49.980;8.358;2023-04-24T05:17:55;9.72;69.98
72277;SHT30;61204;49.980;8.358;2023-04-24T05:20:20;9.76;70.09
72277;SHT30;61204;49.980;8.358;2023-04-24T05:22:46;9.85;69.35
72277;SHT30;61204;49.980;8.358;2023-04-24T05:25:11;9.83;69.55
72277;SHT30;61204;49.980;8.358;2023-04-24T05:27:38;9.69;70.24
72277;SHT30;61204;49.980;8.358;2023-04-24T05:30:04;9.70;69.96
72277;SHT30;61204;49.980;8.358;2023-04-24T05:32:30;9.77;70.35
72277;SHT30;61204;49.980;8.358;2023-04-24T05:34:55;10.07;69.61
72277;SHT30;61204;49.980;8.358;2023-04-24T05:37:21;10.18;69.45
72277;SHT30;61204;49.980;8.358;2023-04-24T05:39:46;10.31;68.72
72277;SHT30;61204;49.980;8.358;2023-04-24T05:42:12;10.11;69.82
72277;SHT30;61204;49.980;8.358;2023-04-24T05:44:37;9.96;71.56
72277;SHT30;61204;49.980;8.358;2023-04-24T05:47:03;9.86;72.21
72277;SHT30;61204;49.980;8.358;2023-04-24T05:49:28;9.83;72.49
72277;SHT30;61204;49.980;8.358;2023-04-24T05:51:57;9.73;73.01
72277;SHT30;61204;49.980;8.358;2023-04-24T05:54:22;9.70;73.01
72277;SHT30;61204;49.980;8.358;2023-04-24T05:56:49;9.75;72.89
72277;SHT30;61204;49.980;8.358;2023-04-24T05:59:15;9.67;73.44
72277;SHT30;61204;49.980;8.358;2023-04-24T06:01:40;9.72;73.37
72277;SHT30;61204;49.980;8.358;2023-04-24T06:04:06;9.79;73.59
72277;SHT30;61204;49.980;8.358;2023-04-24T06:06:34;9.93;73.45
72277;SHT30;61204;49.980;8.358;2023-04-24T06:09:00;10.03;73.61
72277;SHT30;61204;49.980;8.358;2023-04-24T06:11:25;10.15;73.76
72277;SHT30;61204;49.980;8.358;2023-04-24T06:13:51;10.35;73.26
72277;SHT30;61204;49.980;8.358;2023-04-24T06:16:17;10.70;73.25
72277;SHT30;61204;49.980;8.358;2023-04-24T06:18:42;11.06;71.81
72277;SHT30;61204;49.980;8.358;2023-04-24T06:21:12;11.13;72.71
72277;SHT30;61204;49.980;8.358;2023-04-24T06:23:38;11.15;73.34
72277;SHT30;61204;49.980;8.358;2023-04-24T06:26:03;11.21;71.95
72277;SHT30;61204;49.980;8.358;2023-04-24T06:28:29;11.10;72.62
72277;SHT30;61204;49.980;8.358;2023-04-24T06:30:55;11.41;71.67
72277;SHT30;61204;49.980;8.358;2023-04-24T06:33:22;11.54;71.14
72277;SHT30;61204;49.980;8.358;2023-04-24T06:35:48;11.66;70.69
72277;SHT30;61204;49.980;8.358;2023-04-24T06:38:13;11.83;69.95
72277;SHT30;61204;49.980;8.358;2023-04-24T06:40:39;12.05;70.01
72277;SHT30;61204;49.980;8.358;2023-04-24T06:43:05;12.45;67.86
72277;SHT30;61204;49.980;8.358;2023-04-24T06:45:31;12.59;68.01
72277;SHT30;61204;49.980;8.358;2023-04-24T06:47:56;12.53;67.69
72277;SHT30;61204;49.980;8.358;2023-04-24T06:50:24;12.38;68.87
72277;SHT30;61204;49.980;8.358;2023-04-24T06:52:50;12.27;69.03
72277;SHT30;61204;49.980;8.358;2023-04-24T06:55:15;12.56;67.57
72277;SHT30;61204;49.980;8.358;2023-04-24T06:57:41;12.67;66.23
72277;SHT30;61204;49.980;8.358;2023-04-24T07:00:08;12.87;66.80
72277;SHT30;61204;49.980;8.358;2023-04-24T07:02:34;13.04;66.30
72277;SHT30;61204;49.980;8.358;2023-04-24T07:05:00;13.28;64.45
72277;SHT30;61204;49.980;8.358;2023-04-24T07:07:26;13.28;64.83
72277;SHT30;61204;49.980;8.358;2023-04-24T07:09:52;13.45;64.36
72277;SHT30;61204;49.980;8.358;2023-04-24T07:12:19;13.67;64.50
72277;SHT30;61204;49.980;8.358;2023-04-24T07:14:46;13.73;65.00
72277;SHT30;61204;49.980;8.358;2023-04-24T07:17:12;13.70;63.31
72277;SHT30;61204;49.980;8.358;2023-04-24T07:19:38;13.34;64.47
72277;SHT30;61204;49.980;8.358;2023-04-24T07:22:03;12.93;64.94
72277;SHT30;61204;49.980;8.358;2023-04-24T07:24:30;12.66;63.89
72277;SHT30;61204;49.980;8.358;2023-04-24T07:26:57;12.44;66.09
72277;SHT30;61204;49.980;8.358;2023-04-24T07:29:26;12.50;65.82
72277;SHT30;61204;49.980;8.358;2023-04-24T07:31:52;12.45;65.64
72277;SHT30;61204;49.980;8.358;2023-04-24T07:34:19;12.45;66.47
72277;SHT30;61204;49.980;8.358;2023-04-24T07:36:45;12.65;65.44
72277;SHT30;61204;49.980;8.358;2023-04-24T07:39:11;12.86;63.70
72277;SHT30;61204;49.980;8.358;2023-04-24T07:41:36;13.34;63.42
72277;SHT30;61204;49.980;8.358;2023-04-24T07:44:02;13.06;63.16
72277;SHT30;61204;49.980;8.358;2023-04-24T07:46:29;12.86;63.88
72277;SHT30;61204;49.980;8.358;2023-04-24T07:48:55;12.70;62.36
72277;SHT30;61204;49.980;8.358;2023-04-24T07:51:21;12.73;62.98
72277;SHT30;61204;49.980;8.358;2023-04-24T07:53:47;13.15;62.50
72277;SHT30;61204;49.980;8.358;2023-04-24T07:56:15;13.12;63.63
72277;SHT30;61204;49.980;8.358;2023-04-24T07:58:40;12.97;62.97
72277;SHT30;61204;49.980;8.358;2023-04-24T08:01:06;13.41;61.92
72277;SHT30;61204;49.980;8.358;2023-04-24T08:03:34;13.70;60.86
72277;SHT30;61204;49.980;8.358;2023-04-24T08:05:59;14.01;59.69
72277;SHT30;61204;49.980;8.358;2023-04-24T08:08:27;13.87;60.49
72277;SHT30;61204;49.980;8.358;2023-04-24T08:10:53;14.13;58.81
72277;SHT30;61204;49.980;8.358;2023-04-24T08:13:18;14.07;59.31
72277;SHT30;61204;49.980;8.358;2023-04-24T08:15:46;14.01;59.58
72277;SHT30;61204;49.980;8.358;2023-04-24T08:18:11;14.18;58.30
72277;SHT30;61204;49.980;8.358;2023-04-24T08:20:38;14.13;59.07
72277;SHT30;61204;49.980;8.358;2023-04-24T08:23:04;14.28;58.56
72277;SHT30;61204;49.980;8.358;2023-04-24T08:25:30;14.17;58.80
72277;SHT30;61204;49.980;8.358;2023-04-24T08:27:55;14.16;59.55
72277;SHT30;61204;49.980;8.358;2023-04-24T08:30:21;14.09;59.14
72277;SHT30;61204;49.980;8.358;2023-04-24T08:32:47;13.89;60.10
72277;SHT30;61204;49.980;8.358;2023-04-24T08:35:12;13.55;61.10
72277;SHT30;61204;49.980;8.358;2023-04-24T08:37:38;13.18;60.69
72277;SHT30;61204;49.980;8.358;2023-04-24T08:40:12;13.22;62.33
72277;SHT30;61204;49.980;8.358;2023-04-24T08:42:42;13.04;62.19
72277;SHT30;61204;49.980;8.358;2023-04-24T08:45:09;12.66;63.45
72277;SHT30;61204;49.980;8.358;2023-04-24T08:47:38;12.66;64.67
72277;SHT30;61204;49.980;8.358;2023-04-24T08:50:05;12.63;62.52
72277;SHT30;61204;49.980;8.358;2023-04-24T08:52:33;12.52;63.31
72277;SHT30;61204;49.980;8.358;2023-04-24T08:55:03;12.38;64.47
72277;SHT30;61204;49.980;8.358;2023-04-24T08:57:28;12.41;64.51
72277;SHT30;61204;49.980;8.358;2023-04-24T08:59:56;12.45;64.29
72277;SHT30;61204;49.980;8.358;2023-04-24T09:02:26;12.34;63.42
72277;SHT30;61204;49.980;8.358;2023-04-24T09:04:52;12.38;64.26
72277;SHT30;61204;49.980;8.358;2023-04-24T09:07:22;12.39;64.30
72277;SHT30;61204;49.980;8.358;2023-04-24T09:09:51;12.56;62.89
72277;SHT30;61204;49.980;8.358;2023-04-24T09:12:18;12.75;62.56
72277;SHT30;61204;49.980;8.358;2023-04-24T09:14:44;12.60;63.28
72277;SHT30;61204;49.980;8.358;2023-04-24T09:17:13;12.48;64.02
72277;SHT30;61204;49.980;8.358;2023-04-24T09:19:40;12.44;63.55
72277;SHT30;61204;49.980;8.358;2023-04-24T09:22:06;12.45;64.29
72277;SHT30;61204;49.980;8.358;2023-04-24T09:24:36;12.45;63.44
72277;SHT30;61204;49.980;8.358;2023-04-24T09:27:01;12.56;63.33
72277;SHT30;61204;49.980;8.358;2023-04-24T09:29:28;12.66;63.80
72277;SHT30;61204;49.980;8.358;2023-04-24T09:31:53;12.63;63.48
72277;SHT30;61204;49.980;8.358;2023-04-24T09:34:23;12.60;63.38
72277;SHT30;61204;49.980;8.358;2023-04-24T09:36:52;12.41;64.08
72277;SHT30;61204;49.980;8.358;2023-04-24T09:39:19;12.59;63.71
72277;SHT30;61204;49.980;8.358;2023-04-24T09:41:55;12.75;63.28
72277;SHT30;61204;49.980;8.358;2023-04-24T09:44:28;12.77;62.91
72277;SHT30;61204;49.980;8.358;2023-04-24T09:46:55;12.84;62.40
72277;SHT30;61204;49.980;8.358;2023-04-24T09:49:26;12.83;63.64
72277;SHT30;61204;49.980;8.358;2023-04-24T09:52:09;13.00;64.60
72277;SHT30;61204;49.980;8.358;2023-04-24T09:54:36;12.94;63.52
72277;SHT30;61204;49.980;8.358;2023-04-24T09:57:03;12.66;65.21
72277;SHT30;61204;49.980;8.358;2023-04-24T09:59:29;12.59;65.95
72277;SHT30;61204;49.980;8.358;2023-04-24T10:01:55;12.69;66.33
72277;SHT30;61204;49.980;8.358;2023-04-24T10:04:24;12.66;65.24
72277;SHT30;61204;49.980;8.358;2023-04-24T10:06:53;12.62;65.62
72277;SHT30;61204;49.980;8.358;2023-04-24T10:09:25;12.44;66.42
72277;SHT30;61204;49.980;8.358;2023-04-24T10:11:53;12.41;66.93
72277;SHT30;61204;49.980;8.358;2023-04-24T10:14:21;12.18;68.92
72277;SHT30;61204;49.980;8.358;2023-04-24T10:16:49;12.13;68.60
72277;SHT30;61204;49.980;8.358;2023-04-24T10:19:17;12.31;68.66
72277;SHT30;61204;49.980;8.358;2023-04-24T10:21:46;12.76;67.15
72277;SHT30;61204;49.980;8.358;2023-04-24T10:24:13;13.06;65.74
72277;SHT30;61204;49.980;8.358;2023-04-24T10:26:41;13.18;67.45
72277;SHT30;61204;49.980;8.358;2023-04-24T10:29:07;12.83;71.45
72277;SHT30;61204;49.980;8.358;2023-04-24T10:31:36;12.56;77.28
72277;SHT30;61204;49.980;8.358;2023-04-24T10:34:04;12.28;75.41
72277;SHT30;61204;49.980;8.358;2023-04-24T10:36:32;11.93;77.14
72277;SHT30;61204;49.980;8.358;2023-04-24T10:39:03;11.56;77.47
72277;SHT30;61204;49.980;8.358;2023-04-24T10:41:33;11.63;80.58
72277;SHT30;61204;49.980;8.358;2023-04-24T10:44:09;11.89;77.93
72277;SHT30;61204;49.980;8.358;2023-04-24T10:46:43;11.95;76.77
72277;SHT30;61204;49.980;8.358;2023-04-24T10:49:28;11.86;75.96
72277;SHT30;61204;49.980;8.358;2023-04-24T10:52:00;11.86;75.70
72277;SHT30;61204;49.980;8.358;2023-04-24T10:59:45;12.05;72.92
72277;SHT30;61204;49.980;8.358;2023-04-24T11:02:14;12.39;72.68
72277;SHT30;61204;49.980;8.358;2023-04-24T11:04:43;13.17;69.16
72277;SHT30;61204;49.980;8.358;2023-04-24T11:07:10;13.91;68.19
72277;SHT30;61204;49.980;8.358;2023-04-24T11:09:37;13.62;66.54
72277;SHT30;61204;49.980;8.358;2023-04-24T11:12:11;13.39;67.06
72277;SHT30;61204;49.980;8.358;2023-04-24T11:17:30;12.97;68.09
72277;SHT30;61204;49.980;8.358;2023-04-24T11:20:04;12.67;67.29
72277;SHT30;61204;49.980;8.358;2023-04-24T11:22:38;12.67;70.27
72277;SHT30;61204;49.980;8.358;2023-04-24T11:25:06;12.73;67.94
72277;SHT30;61204;49.980;8.358;2023-04-24T11:27:42;12.55;67.87
72277;SHT30;61204;49.980;8.358;2023-04-24T11:30:10;12.67;69.71
72277;SHT30;61204;49.980;8.358;2023-04-24T11:32:40;12.73;70.39
72277;SHT30;61204;49.980;8.358;2023-04-24T11:35:25;12.69;72.08
72277;SHT30;61204;49.980;8.358;2023-04-24T11:37:53;13.03;72.59
72277;SHT30;61204;49.980;8.358;2023-04-24T11:40:21;13.63;69.20
72277;SHT30;61204;49.980;8.358;2023-04-24T11:42:54;13.93;65.33
72277;SHT30;61204;49.980;8.358;2023-04-24T11:45:26;14.11;65.51
72277;SHT30;61204;49.980;8.358;2023-04-24T11:47:53;14.82;63.33
72277;SHT30;61204;49.980;8.358;2023-04-24T11:50:21;15.37;61.86
72277;SHT30;61204;49.980;8.358;2023-04-24T11:52:49;15.69;58.64
72277;SHT30;61204;49.980;8.358;2023-04-24T11:57:45;15.94;59.53
72277;SHT30;61204;49.980;8.358;2023-04-24T12:00:25;16.54;57.74
72277;SHT30;61204;49.980;8.358;2023-04-24T12:03:06;17.02;54.75
72277;SHT30;61204;49.980;8.358;2023-04-24T12:05:33;16.17;55.64
72277;SHT30;61204;49.980;8.358;2023-04-24T12:07:59;15.12;66.88
72277;SHT30;61204;49.980;8.358;2023-04-24T12:10:30;14.55;70.95
72277;SHT30;61204;49.980;8.358;2023-04-24T12:12:57;13.94;72.95
72277;SHT30;61204;49.980;8.358;2023-04-24T12:15:24;13.45;79.43
72277;SHT30;61204;49.980;8.358;2023-04-24T12:17:51;13.06;77.96
72277;SHT30;61204;49.980;8.358;2023-04-24T12:20:24;12.72;80.48
72277;SHT30;61204;49.980;8.358;2023-04-24T12:22:56;12.63;77.97
72277;SHT30;61204;49.980;8.358;2023-04-24T12:25:30;12.48;80.71
72277;SHT30;61204;49.980;8.358;2023-04-24T12:30:29;12.39;78.56
72277;SHT30;61204;49.980;8.358;2023-04-24T12:33:09;12.41;78.57
72277;SHT30;61204;49.980;8.358;2023-04-24T12:35:36;12.60;78.66
72277;SHT30;61204;49.980;8.358;2023-04-24T12:38:15;12.73;74.59
72277;SHT30;61204;49.980;8.358;2023-04-24T12:40:42;12.89;74.73
72277;SHT30;61204;49.980;8.358;2023-04-24T12:43:15;13.17;74.27
72277;SHT30;61204;49.980;8.358;2023-04-24T12:45:44;13.44;73.88
72277;SHT30;61204;49.980;8.358;2023-04-24T12:48:14;13.86;70.65
72277;SHT30;61204;49.980;8.358;2023-04-24T12:50:39;14.24;70.02
72277;SHT30;61204;49.980;8.358;2023-04-24T12:53:08;14.28;62.97
72277;SHT30;61204;49.980;8.358;2023-04-24T12:55:34;14.29;60.72
72277;SHT30;61204;49.980;8.358;2023-04-24T12:58:00;14.45;60.79
72277;SHT30;61204;49.980;8.358;2023-04-24T13:00:29;14.59;58.37
72277;SHT30;61204;49.980;8.358;2023-04-24T13:02:57;14.75;58.71
72277;SHT30;61204;49.980;8.358;2023-04-24T13:05:22;14.72;57.90
72277;SHT30;61204;49.980;8.358;2023-04-24T13:07:48;14.96;56.33
72277;SHT30;61204;49.980;8.358;2023-04-24T13:10:13;15.23;55.09
72277;SHT30;61204;49.980;8.358;2023-04-24T13:12:39;15.69;55.17
72277;SHT30;61204;49.980;8.358;2023-04-24T13:15:10;16.47;53.65
72277;SHT30;61204;49.980;8.358;2023-04-24T13:17:36;16.77;53.00
72277;SHT30;61204;49.980;8.358;2023-04-24T13:20:01;16.22;51.23
72277;SHT30;61204;49.980;8.358;2023-04-24T13:22:27;15.63;53.80
72277;SHT30;61204;49.980;8.358;2023-04-24T13:24:53;15.17;58.74
72277;SHT30;61204;49.980;8.358;2023-04-24T13:27:18;14.39;60.57
72277;SHT30;61204;49.980;8.358;2023-04-24T13:29:44;13.59;62.14
72277;SHT30;61204;49.980;8.358;2023-04-24T13:32:10;13.25;65.65
72277;SHT30;61204;49.980;8.358;2023-04-24T13:34:35;12.86;70.10
72277;SHT30;61204;49.980;8.358;2023-04-24T13:37:02;12.62;70.51
72277;SHT30;61204;49.980;8.358;2023-04-24T13:39:29;12.79;66.63
72277;SHT30;61204;49.980;8.358;2023-04-24T13:41:55;13.15;66.88
72277;SHT30;61204;49.980;8.358;2023-04-24T13:44:21;13.75;64.94
72277;SHT30;61204;49.980;8.358;2023-04-24T13:46:53;14.00;61.53
72277;SHT30;61204;49.980;8.358;2023-04-24T13:49:23;14.65;60.52
72277;SHT30;61204;49.980;8.358;2023-04-24T13:51:53;15.63;57.67
72277;SHT30;61204;49.980;8.358;2023-04-24T13:54:20;16.16;56.30
72277;SHT30;61204;49.980;8.358;2023-04-24T13:56:45;15.58;55.43
72277;SHT30;61204;49.980;8.358;2023-04-24T13:59:13;15.52;55.68
72277;SHT30;61204;49.980;8.358;2023-04-24T14:01:38;15.16;55.19
72277;SHT30;61204;49.980;8.358;2023-04-24T14:04:04;15.34;53.80
72277;SHT30;61204;49.980;8.358;2023-04-24T14:06:29;15.12;52.83
72277;SHT30;61204;49.980;8.358;2023-04-24T14:08:58;15.08;52.00
72277;SHT30;61204;49.980;8.358;2023-04-24T14:11:24;15.03;53.89
72277;SHT30;61204;49.980;8.358;2023-04-24T14:13:51;15.16;53.58
72277;SHT30;61204;49.980;8.358;2023-04-24T14:16:16;14.99;50.02
72277;SHT30;61204;49.980;8.358;2023-04-24T14:18:42;15.10;51.24
72277;SHT30;61204;49.980;8.358;2023-04-24T14:21:07;15.10;52.73
72277;SHT30;61204;49.980;8.358;2023-04-24T14:23:33;14.96;52.59
72277;SHT30;61204;49.980;8.358;2023-04-24T14:25:58;14.94;52.59
72277;SHT30;61204;49.980;8.358;2023-04-24T14:28:24;15.10;52.82
72277;SHT30;61204;49.980;8.358;2023-04-24T14:30:51;15.18;52.41
72277;SHT30;61204;49.980;8.358;2023-04-24T14:33:17;15.20;51.84
72277;SHT30;61204;49.980;8.358;2023-04-24T14:35:43;15.06;53.29
72277;SHT30;61204;49.980;8.358;2023-04-24T14:38:09;15.26;52.14
72277;SHT30;61204;49.980;8.358;2023-04-24T14:40:36;15.08;51.28
72277;SHT30;61204;49.980;8.358;2023-04-24T14:43:02;15.08;51.90
72277;SHT30;61204;49.980;8.358;2023-04-24T14:45:28;15.07;52.92
72277;SHT30;61204;49.980;8.358;2023-04-24T14:47:54;15.07;53.27
72277;SHT30;61204;49.980;8.358;2023-04-24T14:50:20;14.94;53.99
72277;SHT30;61204;49.980;8.358;2023-04-24T14:52:46;14.59;54.27
72277;SHT30;61204;49.980;8.358;2023-04-24T14:55:12;14.56;54.75
72277;SHT30;61204;49.980;8.358;2023-04-24T14:57:38;14.68;54.75
72277;SHT30;61204;49.980;8.358;2023-04-24T15:00:05;14.89;54.81
72277;SHT30;61204;49.980;8.358;2023-04-24T15:02:33;15.06;53.56
72277;SHT30;61204;49.980;8.358;2023-04-24T15:04:59;15.32;54.47
72277;SHT30;61204;49.980;8.358;2023-04-24T15:07:25;15.24;52.86
72277;SHT30;61204;49.980;8.358;2023-04-24T15:09:50;15.61;52.45
72277;SHT30;61204;49.980;8.358;2023-04-24T15:12:16;15.61;52.62
72277;SHT30;61204;49.980;8.358;2023-04-24T15:14:41;15.30;51.58
72277;SHT30;61204;49.980;8.358;2023-04-24T15:17:07;15.07;51.88
72277;SHT30;61204;49.980;8.358;2023-04-24T15:19:33;15.45;52.07
72277;SHT30;61204;49.980;8.358;2023-04-24T15:21:58;15.63;49.56
72277;SHT30;61204;49.980;8.358;2023-04-24T15:24:23;16.00;49.40
72277;SHT30;61204;49.980;8.358;2023-04-24T15:26:51;16.29;49.43
72277;SHT30;61204;49.980;8.358;2023-04-24T15:29:18;16.47;49.73
72277;SHT30;61204;49.980;8.358;2023-04-24T15:31:45;16.27;49.02
72277;SHT30;61204;49.980;8.358;2023-04-24T15:34:11;15.73;49.37
72277;SHT30;61204;49.980;8.358;2023-04-24T15:36:37;15.54;50.58
72277;SHT30;61204;49.980;8.358;2023-04-24T15:39:02;15.37;51.28
72277;SHT30;61204;49.980;8.358;2023-04-24T15:41:28;15.27;52.21
72277;SHT30;61204;49.980;8.358;2023-04-24T15:43:53;15.11;51.30